sensor_id;sensor_type;location;lat;lon;timestamp;P1;durP1;ratioP1;P2;durP2;ratioP2
67544;SDS011;54380;47.770;11.150;2022-10-16T00:00:41;11.70;;;1.40;;
67544;SDS011;54380;47.770;11.150;2022-10-16T00:03:11;11.63;;;1.65;;
67544;SDS011;54380;47.770;11.150;2022-10-16T00:05:38;10.77;;;1.52;;
67544;SDS011;54380;47.770;11.150;2022-10-16T00:08:07;7.20;;;0.85;;
67544;SDS011;54380;47.770;11.150;2022-10-16T00:10:42;8.05;;;1.50;;
67544;SDS011;54380;47.770;11.150;2022-10-16T00:13:10;6.68;;;1.23;;
67544;SDS011;54380;47.770;11.150;2022-10-16T00:15:36;11.70;;;1.20;;
67544;SDS011;54380;47.770;11.150;2022-10-16T00:18:05;5.70;;;0.80;;
67544;SDS011;54380;47.770;11.150;2022-10-16T00:20:34;9.10;;;0.93;;
67544;SDS011;54380;47.770;11.150;2022-10-16T00:23:03;6.35;;;0.98;;
67544;SDS011;54380;47.770;11.150;2022-10-16T00:25:31;8.82;;;0.63;;
67544;SDS011;54380;47.770;11.150;2022-10-16T00:28:02;14.68;;;2.28;;
67544;SDS011;54380;47.770;11.150;2022-10-16T00:30:29;11.40;;;2.15;;
67544;SDS011;54380;47.770;11.150;2022-10-16T00:32:56;14.05;;;1.83;;
67544;SDS011;54380;47.770;11.150;2022-10-16T00:35:23;8.13;;;0.80;;
67544;SDS011;54380;47.770;11.150;2022-10-16T00:37:51;8.25;;;1.10;;
67544;SDS011;54380;47.770;11.150;2022-10-16T00:40:18;14.75;;;2.47;;
67544;SDS011;54380;47.770;11.150;2022-10-16T00:42:45;11.05;;;1.35;;
67544;SDS011;54380;47.770;11.150;2022-10-16T00:45:12;11.38;;;1.23;;
67544;SDS011;54380;47.770;11.150;2022-10-16T00:47:39;6.72;;;1.30;;
67544;SDS011;54380;47.770;11.150;2022-10-16T00:50:09;8.20;;;1.23;;
67544;SDS011;54380;47.770;11.150;2022-10-16T00:52:41;10.38;;;1.90;;
67544;SDS011;54380;47.770;11.150;2022-10-16T00:55:12;13.40;;;1.75;;
67544;SDS011;54380;47.770;11.150;2022-10-16T00:57:40;8.73;;;1.05;;
67544;SDS011;54380;47.770;11.150;2022-10-16T01:00:09;7.60;;;1.40;;
67544;SDS011;54380;47.770;11.150;2022-10-16T01:02:43;8.73;;;1.13;;
67544;SDS011;54380;47.770;11.150;2022-10-16T01:05:10;6.72;;;0.73;;
67544;SDS011;54380;47.770;11.150;2022-10-16T01:07:40;6.85;;;1.60;;
67544;SDS011;54380;47.770;11.150;2022-10-16T01:10:17;6.10;;;1.00;;
67544;SDS011;54380;47.770;11.150;2022-10-16T01:12:54;13.63;;;2.17;;
67544;SDS011;54380;47.770;11.150;2022-10-16T01:15:26;15.45;;;2.00;;
67544;SDS011;54380;47.770;11.150;2022-10-16T01:17:58;14.15;;;1.83;;
67544;SDS011;54380;47.770;11.150;2022-10-16T01:20:30;7.13;;;1.10;;
67544;SDS011;54380;47.770;11.150;2022-10-16T01:23:14;7.38;;;0.98;;
67544;SDS011;54380;47.770;11.150;2022-10-16T01:25:58;7.70;;;1.00;;
67544;SDS011;54380;47.770;11.150;2022-10-16T01:31:16;8.57;;;0.75;;
67544;SDS011;54380;47.770;11.150;2022-10-16T01:33:50;12.02;;;0.93;;
67544;SDS011;54380;47.770;11.150;2022-10-16T01:36:25;9.75;;;0.70;;
67544;SDS011;54380;47.770;11.150;2022-10-16T01:39:02;6.13;;;0.75;;
67544;SDS011;54380;47.770;11.150;2022-10-16T01:41:31;8.00;;;1.00;;
67544;SDS011;54380;47.770;11.150;2022-10-16T01:47:04;9.52;;;1.63;;
67544;SDS011;54380;47.770;11.150;2022-10-16T01:49:35;12.23;;;1.63;;
67544;SDS011;54380;47.770;11.150;2022-10-16T01:52:05;9.82;;;1.92;;
67544;SDS011;54380;47.770;11.150;2022-10-16T01:54:36;14.10;;;4.13;;
67544;SDS011;54380;47.770;11.150;2022-10-16T01:57:08;13.00;;;3.70;;
67544;SDS011;54380;47.770;11.150;2022-10-16T02:12:30;9.43;;;1.33;;
67544;SDS011;54380;47.770;11.150;2022-10-16T02:15:13;6.75;;;1.02;;
67544;SDS011;54380;47.770;11.150;2022-10-16T02:17:53;9.40;;;2.15;;
67544;SDS011;54380;47.770;11.150;2022-10-16T02:20:36;10.93;;;2.08;;
67544;SDS011;54380;47.770;11.150;2022-10-16T02:23:23;7.85;;;1.00;;
67544;SDS011;54380;47.770;11.150;2022-10-16T02:26:12;10.73;;;2.63;;
67544;SDS011;54380;47.770;11.150;2022-10-16T02:28:45;7.00;;;1.00;;
67544;SDS011;54380;47.770;11.150;2022-10-16T02:31:32;9.18;;;1.60;;
67544;SDS011;54380;47.770;11.150;2022-10-16T02:34:16;5.45;;;0.80;;
67544;SDS011;54380;47.770;11.150;2022-10-16T02:36:45;6.43;;;1.23;;
67544;SDS011;54380;47.770;11.150;2022-10-16T02:39:15;6.03;;;0.80;;
67544;SDS011;54380;47.770;11.150;2022-10-16T02:41:45;8.02;;;1.80;;
67544;SDS011;54380;47.770;11.150;2022-10-16T02:44:15;5.95;;;0.93;;
67544;SDS011;54380;47.770;11.150;2022-10-16T02:46:55;11.32;;;1.45;;
67544;SDS011;54380;47.770;11.150;2022-10-16T02:49:36;6.07;;;0.80;;
67544;SDS011;54380;47.770;11.150;2022-10-16T02:52:17;6.38;;;0.82;;
67544;SDS011;54380;47.770;11.150;2022-10-16T02:54:57;8.50;;;1.23;;
67544;SDS011;54380;47.770;11.150;2022-10-16T02:57:28;10.30;;;1.30;;
67544;SDS011;54380;47.770;11.150;2022-10-16T02:59:58;5.45;;;0.77;;
67544;SDS011;54380;47.770;11.150;2022-10-16T03:02:25;9.43;;;1.00;;
67544;SDS011;54380;47.770;11.150;2022-10-16T03:04:52;6.72;;;1.42;;
67544;SDS011;54380;47.770;11.150;2022-10-16T03:07:23;8.32;;;0.98;;
67544;SDS011;54380;47.770;11.150;2022-10-16T03:10:04;7.57;;;1.00;;
67544;SDS011;54380;47.770;11.150;2022-10-16T03:12:45;6.50;;;0.90;;
67544;SDS011;54380;47.770;11.150;2022-10-16T03:27:29;6.10;;;0.65;;
67544;SDS011;54380;47.770;11.150;2022-10-16T03:30:11;7.22;;;1.50;;
67544;SDS011;54380;47.770;11.150;2022-10-16T03:35:59;5.45;;;1.17;;
67544;SDS011;54380;47.770;11.150;2022-10-16T03:38:40;7.88;;;0.90;;
67544;SDS011;54380;47.770;11.150;2022-10-16T03:47:35;8.23;;;0.85;;
67544;SDS011;54380;47.770;11.150;2022-10-16T03:50:03;9.25;;;0.70;;
67544;SDS011;54380;47.770;11.150;2022-10-16T03:52:30;8.13;;;1.30;;
67544;SDS011;54380;47.770;11.150;2022-10-16T03:54:58;5.70;;;0.80;;
67544;SDS011;54380;47.770;11.150;2022-10-16T03:57:25;6.85;;;1.45;;
67544;SDS011;54380;47.770;11.150;2022-10-16T03:59:53;5.00;;;0.85;;
67544;SDS011;54380;47.770;11.150;2022-10-16T04:02:46;8.80;;;1.13;;
67544;SDS011;54380;47.770;11.150;2022-10-16T04:14:08;5.03;;;0.52;;
67544;SDS011;54380;47.770;11.150;2022-10-16T04:38:50;6.40;;;0.88;;
67544;SDS011;54380;47.770;11.150;2022-10-16T04:41:17;8.63;;;1.55;;
67544;SDS011;54380;47.770;11.150;2022-10-16T04:43:51;7.88;;;1.05;;
67544;SDS011;54380;47.770;11.150;2022-10-16T04:46:20;5.70;;;1.30;;
67544;SDS011;54380;47.770;11.150;2022-10-16T05:00:49;6.88;;;1.40;;
67544;SDS011;54380;47.770;11.150;2022-10-16T05:03:15;5.53;;;0.88;;
67544;SDS011;54380;47.770;11.150;2022-10-16T05:05:46;7.43;;;1.80;;
67544;SDS011;54380;47.770;11.150;2022-10-16T06:09:21;7.32;;;0.90;;
67544;SDS011;54380;47.770;11.150;2022-10-16T06:14:16;14.38;;;2.95;;
67544;SDS011;54380;47.770;11.150;2022-10-16T06:16:43;11.68;;;1.70;;
67544;SDS011;54380;47.770;11.150;2022-10-16T06:19:23;16.38;;;2.10;;
67544;SDS011;54380;47.770;11.150;2022-10-16T06:21:50;11.65;;;1.67;;
67544;SDS011;54380;47.770;11.150;2022-10-16T06:41:37;7.03;;;0.95;;
67544;SDS011;54380;47.770;11.150;2022-10-16T06:49:42;7.85;;;1.13;;
67544;SDS011;54380;47.770;11.150;2022-10-16T06:52:13;7.30;;;1.00;;
67544;SDS011;54380;47.770;11.150;2022-10-16T06:54:42;7.35;;;1.30;;
67544;SDS011;54380;47.770;11.150;2022-10-16T06:57:12;10.07;;;1.92;;
67544;SDS011;54380;47.770;11.150;2022-10-16T06:59:42;10.10;;;1.75;;
67544;SDS011;54380;47.770;11.150;2022-10-16T07:02:12;11.25;;;1.42;;
67544;SDS011;54380;47.770;11.150;2022-10-16T07:04:39;7.00;;;1.35;;
67544;SDS011;54380;47.770;11.150;2022-10-16T07:07:05;7.78;;;1.70;;
67544;SDS011;54380;47.770;11.150;2022-10-16T07:12:03;7.93;;;1.10;;
67544;SDS011;54380;47.770;11.150;2022-10-16T07:14:30;6.43;;;1.05;;
67544;SDS011;54380;47.770;11.150;2022-10-16T07:16:58;5.75;;;0.77;;
67544;SDS011;54380;47.770;11.150;2022-10-16T07:19:25;5.93;;;1.00;;
67544;SDS011;54380;47.770;11.150;2022-10-16T07:21:55;6.53;;;0.98;;
67544;SDS011;54380;47.770;11.150;2022-10-16T07:24:23;8.48;;;1.75;;
67544;SDS011;54380;47.770;11.150;2022-10-16T07:26:50;9.18;;;1.20;;
67544;SDS011;54380;47.770;11.150;2022-10-16T07:29:19;6.50;;;1.05;;
67544;SDS011;54380;47.770;11.150;2022-10-16T07:31:48;6.20;;;1.00;;
67544;SDS011;54380;47.770;11.150;2022-10-16T07:34:17;6.07;;;1.10;;
67544;SDS011;54380;47.770;11.150;2022-10-16T07:36:47;6.75;;;1.33;;
67544;SDS011;54380;47.770;11.150;2022-10-16T07:41:40;10.13;;;1.65;;
67544;SDS011;54380;47.770;11.150;2022-10-16T07:44:07;8.75;;;2.08;;
67544;SDS011;54380;47.770;11.150;2022-10-16T07:46:36;12.40;;;2.50;;
67544;SDS011;54380;47.770;11.150;2022-10-16T07:49:03;10.63;;;2.75;;
67544;SDS011;54380;47.770;11.150;2022-10-16T07:51:30;12.07;;;2.60;;
67544;SDS011;54380;47.770;11.150;2022-10-16T07:53:57;12.43;;;3.22;;
67544;SDS011;54380;47.770;11.150;2022-10-16T07:56:25;11.00;;;2.22;;
67544;SDS011;54380;47.770;11.150;2022-10-16T07:58:52;10.77;;;2.45;;
67544;SDS011;54380;47.770;11.150;2022-10-16T08:01:19;10.50;;;2.75;;
67544;SDS011;54380;47.770;11.150;2022-10-16T08:03:52;9.50;;;2.35;;
67544;SDS011;54380;47.770;11.150;2022-10-16T08:06:20;10.15;;;2.40;;
67544;SDS011;54380;47.770;11.150;2022-10-16T08:09:03;9.43;;;2.42;;
67544;SDS011;54380;47.770;11.150;2022-10-16T08:11:43;14.23;;;2.00;;
67544;SDS011;54380;47.770;11.150;2022-10-16T08:17:26;8.88;;;1.80;;
67544;SDS011;54380;47.770;11.150;2022-10-16T09:29:40;8.70;;;0.85;;
67544;SDS011;54380;47.770;11.150;2022-10-16T09:32:09;5.20;;;0.80;;
67544;SDS011;54380;47.770;11.150;2022-10-16T09:34:41;5.40;;;0.90;;
67544;SDS011;54380;47.770;11.150;2022-10-16T09:37:11;6.55;;;1.02;;
67544;SDS011;54380;47.770;11.150;2022-10-16T09:39:56;6.63;;;1.08;;
67544;SDS011;54380;47.770;11.150;2022-10-16T09:42:24;5.63;;;0.93;;
67544;SDS011;54380;47.770;11.150;2022-10-16T09:48:11;5.25;;;0.80;;
67544;SDS011;54380;47.770;11.150;2022-10-16T09:53:25;5.35;;;0.90;;
67544;SDS011;54380;47.770;11.150;2022-10-16T09:56:48;7.40;;;0.93;;
67544;SDS011;54380;47.770;11.150;2022-10-16T09:59:21;4.85;;;0.75;;
67544;SDS011;54380;47.770;11.150;2022-10-16T10:13:17;4.93;;;0.73;;
67544;SDS011;54380;47.770;11.150;2022-10-16T10:15:46;4.78;;;0.73;;
67544;SDS011;54380;47.770;11.150;2022-10-16T10:18:16;5.85;;;1.02;;
67544;SDS011;54380;47.770;11.150;2022-10-16T10:20:58;6.03;;;1.05;;
67544;SDS011;54380;47.770;11.150;2022-10-16T10:23:28;8.60;;;1.15;;
67544;SDS011;54380;47.770;11.150;2022-10-16T10:26:15;4.68;;;1.00;;
67544;SDS011;54380;47.770;11.150;2022-10-16T10:29:02;5.25;;;1.00;;
67544;SDS011;54380;47.770;11.150;2022-10-16T10:31:42;3.08;;;0.60;;
67544;SDS011;54380;47.770;11.150;2022-10-16T10:37:32;6.75;;;1.40;;
67544;SDS011;54380;47.770;11.150;2022-10-16T10:40:11;5.40;;;0.95;;
67544;SDS011;54380;47.770;11.150;2022-10-16T10:55:02;3.63;;;0.60;;
67544;SDS011;54380;47.770;11.150;2022-10-16T10:58:24;3.85;;;0.60;;
67544;SDS011;54380;47.770;11.150;2022-10-16T11:01:10;3.60;;;0.70;;
67544;SDS011;54380;47.770;11.150;2022-10-16T11:04:01;4.75;;;0.98;;
67544;SDS011;54380;47.770;11.150;2022-10-16T11:06:42;3.58;;;0.77;;
67544;SDS011;54380;47.770;11.150;2022-10-16T11:09:36;3.17;;;0.68;;
67544;SDS011;54380;47.770;11.150;2022-10-16T11:12:09;3.80;;;0.65;;
67544;SDS011;54380;47.770;11.150;2022-10-16T11:14:53;4.88;;;0.82;;
67544;SDS011;54380;47.770;11.150;2022-10-16T11:17:47;2.72;;;0.55;;
67544;SDS011;54380;47.770;11.150;2022-10-16T11:20:19;3.53;;;0.65;;
67544;SDS011;54380;47.770;11.150;2022-10-16T11:23:05;3.75;;;0.73;;
67544;SDS011;54380;47.770;11.150;2022-10-16T11:29:26;2.13;;;0.40;;
67544;SDS011;54380;47.770;11.150;2022-10-16T11:32:01;3.75;;;0.75;;
67544;SDS011;54380;47.770;11.150;2022-10-16T11:35:32;2.95;;;0.40;;
67544;SDS011;54380;47.770;11.150;2022-10-16T11:44:18;2.15;;;0.50;;
67544;SDS011;54380;47.770;11.150;2022-10-16T11:53:23;1.38;;;0.47;;
67544;SDS011;54380;47.770;11.150;2022-10-16T11:59:11;2.65;;;0.32;;
67544;SDS011;54380;47.770;11.150;2022-10-16T12:02:47;1.88;;;0.38;;
67544;SDS011;54380;47.770;11.150;2022-10-16T12:48:28;2.58;;;0.40;;
67544;SDS011;54380;47.770;11.150;2022-10-16T12:51:10;2.72;;;0.30;;
67544;SDS011;54380;47.770;11.150;2022-10-16T12:54:22;4.15;;;0.50;;
67544;SDS011;54380;47.770;11.150;2022-10-16T12:57:49;2.78;;;0.43;;
67544;SDS011;54380;47.770;11.150;2022-10-16T13:00:48;1.85;;;0.30;;
67544;SDS011;54380;47.770;11.150;2022-10-16T13:07:36;6.22;;;0.45;;
67544;SDS011;54380;47.770;11.150;2022-10-16T13:16:48;2.25;;;0.40;;
67544;SDS011;54380;47.770;11.150;2022-10-16T13:19:38;2.78;;;0.28;;
67544;SDS011;54380;47.770;11.150;2022-10-16T13:29:29;1.30;;;0.43;;
67544;SDS011;54380;47.770;11.150;2022-10-16T13:31:58;3.08;;;0.40;;
67544;SDS011;54380;47.770;11.150;2022-10-16T13:35:17;2.47;;;0.40;;
67544;SDS011;54380;47.770;11.150;2022-10-16T13:38:43;1.83;;;0.30;;
67544;SDS011;54380;47.770;11.150;2022-10-16T13:41:30;1.60;;;0.30;;
67544;SDS011;54380;47.770;11.150;2022-10-16T14:08:21;3.65;;;0.50;;
67544;SDS011;54380;47.770;11.150;2022-10-16T14:10:58;2.80;;;0.47;;
67544;SDS011;54380;47.770;11.150;2022-10-16T14:14:10;2.90;;;0.95;;
67544;SDS011;54380;47.770;11.150;2022-10-16T14:17:33;2.22;;;0.55;;
67544;SDS011;54380;47.770;11.150;2022-10-16T14:20:32;1.52;;;0.35;;
67544;SDS011;54380;47.770;11.150;2022-10-16T14:42:29;4.00;;;0.93;;
67544;SDS011;54380;47.770;11.150;2022-10-16T14:44:59;2.20;;;0.40;;
67544;SDS011;54380;47.770;11.150;2022-10-16T14:47:28;2.75;;;0.57;;
67544;SDS011;54380;47.770;11.150;2022-10-16T14:54:17;3.53;;;0.57;;
67544;SDS011;54380;47.770;11.150;2022-10-16T23:58:36;10.52;;;1.05;;
